sensor_id;sensor_type;location;lat;lon;timestamp;temperature;humidity
53643;DHT22;39546;45.534;12.048;2023-02-28T00:00:13;8.70;81.70
53643;DHT22;39546;45.534;12.048;2023-02-28T00:06:15;8.60;81.50
53643;DHT22;39546;45.534;12.048;2023-02-28T00:12:17;8.50;81.40
53643;DHT22;39546;45.534;12.048;2023-02-28T00:18:20;8.60;81.70
53643;DHT22;39546;45.534;12.048;2023-02-28T00:24:22;8.60;81.10
53643;DHT22;39546;45.534;12.048;2023-02-28T00:30:24;8.50;81.00
53643;DHT22;39546;45.534;12.048;2023-02-28T00:36:26;8.50;80.70
53643;DHT22;39546;45.534;12.048;2023-02-28T00:42:29;8.50;80.40
53643;DHT22;39546;45.534;12.048;2023-02-28T00:48:31;8.60;80.20
53643;DHT22;39546;45.534;12.048;2023-02-28T00:54:34;8.60;79.80
53643;DHT22;39546;45.534;12.048;2023-02-28T01:00:36;8.50;79.80
53643;DHT22;39546;45.534;12.048;2023-02-28T01:06:39;8.40;79.90
53643;DHT22;39546;45.534;12.048;2023-02-28T01:12:41;8.30;79.80
53643;DHT22;39546;45.534;12.048;2023-02-28T01:18:43;8.10;79.90
53643;DHT22;39546;45.534;12.048;2023-02-28T01:24:46;8.00;80.80
53643;DHT22;39546;45.534;12.048;2023-02-28T01:30:49;8.10;80.80
53643;DHT22;39546;45.534;12.048;2023-02-28T01:36:51;8.20;80.80
53643;DHT22;39546;45.534;12.048;2023-02-28T01:42:54;8.10;80.70
53643;DHT22;39546;45.534;12.048;2023-02-28T01:49:07;7.90;80.90
53643;DHT22;39546;45.534;12.048;2023-02-28T01:55:11;8.00;80.80
53643;DHT22;39546;45.534;12.048;2023-02-28T02:01:14;8.10;80.60
53643;DHT22;39546;45.534;12.048;2023-02-28T02:07:23;8.10;80.40
53643;DHT22;39546;45.534;12.048;2023-02-28T02:20:24;8.20;79.90
53643;DHT22;39546;45.534;12.048;2023-02-28T02:39:47;8.20;81.20
53643;DHT22;39546;45.534;12.048;2023-02-28T02:46:01;8.20;81.00
53643;DHT22;39546;45.534;12.048;2023-02-28T02:52:08;8.20;81.00
53643;DHT22;39546;45.534;12.048;2023-02-28T02:58:15;8.20;80.90
53643;DHT22;39546;45.534;12.048;2023-02-28T03:04:20;8.20;81.30
53643;DHT22;39546;45.534;12.048;2023-02-28T03:10:29;8.20;81.50
53643;DHT22;39546;45.534;12.048;2023-02-28T03:17:01;8.20;81.50
53643;DHT22;39546;45.534;12.048;2023-02-28T03:23:23;8.20;81.40
53643;DHT22;39546;45.534;12.048;2023-02-28T03:29:37;8.20;81.70
53643;DHT22;39546;45.534;12.048;2023-02-28T03:35:54;8.20;81.60
53643;DHT22;39546;45.534;12.048;2023-02-28T03:42:14;8.20;81.90
53643;DHT22;39546;45.534;12.048;2023-02-28T03:48:30;8.20;81.60
53643;DHT22;39546;45.534;12.048;2023-02-28T03:54:39;8.20;81.70
53643;DHT22;39546;45.534;12.048;2023-02-28T04:00:50;8.30;81.50
53643;DHT22;39546;45.534;12.048;2023-02-28T04:07:05;8.50;81.50
53643;DHT22;39546;45.534;12.048;2023-02-28T04:13:07;8.70;81.30
53643;DHT22;39546;45.534;12.048;2023-02-28T04:19:10;8.80;81.50
53643;DHT22;39546;45.534;12.048;2023-02-28T04:25:13;8.80;81.40
53643;DHT22;39546;45.534;12.048;2023-02-28T04:31:15;8.70;81.80
53643;DHT22;39546;45.534;12.048;2023-02-28T04:37:17;8.70;82.00
53643;DHT22;39546;45.534;12.048;2023-02-28T04:43:19;8.70;82.00
53643;DHT22;39546;45.534;12.048;2023-02-28T04:49:21;8.70;81.80
53643;DHT22;39546;45.534;12.048;2023-02-28T04:55:23;8.60;81.70
53643;DHT22;39546;45.534;12.048;2023-02-28T05:01:28;8.70;81.60
53643;DHT22;39546;45.534;12.048;2023-02-28T05:07:31;8.70;81.20
53643;DHT22;39546;45.534;12.048;2023-02-28T05:13:33;8.70;80.90
53643;DHT22;39546;45.534;12.048;2023-02-28T05:19:35;8.70;81.50
53643;DHT22;39546;45.534;12.048;2023-02-28T05:25:37;8.70;81.50
53643;DHT22;39546;45.534;12.048;2023-02-28T05:31:39;8.70;81.20
53643;DHT22;39546;45.534;12.048;2023-02-28T05:37:41;8.80;80.90
53643;DHT22;39546;45.534;12.048;2023-02-28T05:43:43;8.90;80.40
53643;DHT22;39546;45.534;12.048;2023-02-28T05:49:45;8.80;80.00
53643;DHT22;39546;45.534;12.048;2023-02-28T05:55:47;8.70;79.80
53643;DHT22;39546;45.534;12.048;2023-02-28T06:01:49;8.70;79.70
53643;DHT22;39546;45.534;12.048;2023-02-28T06:07:52;8.60;79.50
53643;DHT22;39546;45.534;12.048;2023-02-28T06:13:55;8.60;79.50
53643;DHT22;39546;45.534;12.048;2023-02-28T06:19:58;8.80;79.10
53643;DHT22;39546;45.534;12.048;2023-02-28T06:26:00;8.80;78.90
53643;DHT22;39546;45.534;12.048;2023-02-28T06:32:02;8.90;78.60
53643;DHT22;39546;45.534;12.048;2023-02-28T06:38:04;9.00;78.60
53643;DHT22;39546;45.534;12.048;2023-02-28T06:44:12;9.10;78.80
53643;DHT22;39546;45.534;12.048;2023-02-28T06:50:14;9.20;79.10
53643;DHT22;39546;45.534;12.048;2023-02-28T06:56:19;9.20;79.80
53643;DHT22;39546;45.534;12.048;2023-02-28T07:02:24;9.20;80.20
53643;DHT22;39546;45.534;12.048;2023-02-28T07:08:27;9.20;80.40
53643;DHT22;39546;45.534;12.048;2023-02-28T07:14:29;9.10;80.70
53643;DHT22;39546;45.534;12.048;2023-02-28T07:20:31;9.10;81.40
53643;DHT22;39546;45.534;12.048;2023-02-28T07:26:33;8.90;81.50
53643;DHT22;39546;45.534;12.048;2023-02-28T07:32:38;8.70;81.30
53643;DHT22;39546;45.534;12.048;2023-02-28T07:38:40;8.50;79.50
53643;DHT22;39546;45.534;12.048;2023-02-28T07:44:42;8.40;81.40
53643;DHT22;39546;45.534;12.048;2023-02-28T07:50:44;8.50;81.50
53643;DHT22;39546;45.534;12.048;2023-02-28T07:56:49;8.70;82.20
53643;DHT22;39546;45.534;12.048;2023-02-28T08:02:51;8.70;82.20
53643;DHT22;39546;45.534;12.048;2023-02-28T08:08:53;8.80;82.60
53643;DHT22;39546;45.534;12.048;2023-02-28T08:14:57;9.10;83.00
53643;DHT22;39546;45.534;12.048;2023-02-28T08:25:22;8.90;80.20
53643;DHT22;39546;45.534;12.048;2023-02-28T08:31:24;8.70;81.10
53643;DHT22;39546;45.534;12.048;2023-02-28T08:37:26;8.80;82.50
53643;DHT22;39546;45.534;12.048;2023-02-28T08:43:29;8.90;83.70
53643;DHT22;39546;45.534;12.048;2023-02-28T08:49:31;8.90;82.70
53643;DHT22;39546;45.534;12.048;2023-02-28T08:55:33;8.80;82.80
53643;DHT22;39546;45.534;12.048;2023-02-28T09:01:35;8.80;80.90
53643;DHT22;39546;45.534;12.048;2023-02-28T09:07:38;8.80;82.50
53643;DHT22;39546;45.534;12.048;2023-02-28T09:13:40;8.90;81.40
53643;DHT22;39546;45.534;12.048;2023-02-28T09:19:42;9.00;81.00
53643;DHT22;39546;45.534;12.048;2023-02-28T09:25:53;9.00;81.30
53643;DHT22;39546;45.534;12.048;2023-02-28T09:31:57;8.90;81.20
53643;DHT22;39546;45.534;12.048;2023-02-28T09:38:01;8.90;79.00
53643;DHT22;39546;45.534;12.048;2023-02-28T09:44:05;9.00;79.70
53643;DHT22;39546;45.534;12.048;2023-02-28T09:56:25;9.00;79.30
53643;DHT22;39546;45.534;12.048;2023-02-28T10:02:54;9.00;77.30
53643;DHT22;39546;45.534;12.048;2023-02-28T10:09:16;8.90;76.00
53643;DHT22;39546;45.534;12.048;2023-02-28T10:15:21;9.10;77.30
53643;DHT22;39546;45.534;12.048;2023-02-28T10:21:34;9.20;75.90
53643;DHT22;39546;45.534;12.048;2023-02-28T10:27:37;9.20;74.70
53643;DHT22;39546;45.534;12.048;2023-02-28T10:33:39;9.30;76.20
53643;DHT22;39546;45.534;12.048;2023-02-28T10:39:45;9.50;78.40
53643;DHT22;39546;45.534;12.048;2023-02-28T10:52:10;9.50;75.70
53643;DHT22;39546;45.534;12.048;2023-02-28T10:58:25;9.30;77.00
53643;DHT22;39546;45.534;12.048;2023-02-28T11:10:34;9.70;76.70
53643;DHT22;39546;45.534;12.048;2023-02-28T11:16:37;9.80;77.90
53643;DHT22;39546;45.534;12.048;2023-02-28T11:22:43;10.00;79.20
53643;DHT22;39546;45.534;12.048;2023-02-28T11:28:46;10.40;78.50
53643;DHT22;39546;45.534;12.048;2023-02-28T11:54:00;10.70;75.60
53643;DHT22;39546;45.534;12.048;2023-02-28T12:00:29;10.60;74.20
53643;DHT22;39546;45.534;12.048;2023-02-28T12:06:56;10.60;75.50
53643;DHT22;39546;45.534;12.048;2023-02-28T12:25:18;10.80;76.20
53643;DHT22;39546;45.534;12.048;2023-02-28T12:31:33;10.70;73.60
53643;DHT22;39546;45.534;12.048;2023-02-28T12:37:50;10.80;73.40
53643;DHT22;39546;45.534;12.048;2023-02-28T12:44:12;11.00;73.80
53643;DHT22;39546;45.534;12.048;2023-02-28T12:50:15;11.20;74.80
53643;DHT22;39546;45.534;12.048;2023-02-28T13:02:59;11.60;71.30
53643;DHT22;39546;45.534;12.048;2023-02-28T13:09:14;11.60;70.20
53643;DHT22;39546;45.534;12.048;2023-02-28T13:15:23;11.70;70.90
53643;DHT22;39546;45.534;12.048;2023-02-28T13:21:26;11.90;73.20
53643;DHT22;39546;45.534;12.048;2023-02-28T13:27:47;12.00;72.60
53643;DHT22;39546;45.534;12.048;2023-02-28T13:46:14;12.20;72.60
53643;DHT22;39546;45.534;12.048;2023-02-28T13:52:20;12.20;72.20
53643;DHT22;39546;45.534;12.048;2023-02-28T13:58:43;12.20;71.70
53643;DHT22;39546;45.534;12.048;2023-02-28T14:04:58;12.30;71.70
53643;DHT22;39546;45.534;12.048;2023-02-28T14:11:15;12.50;70.30
53643;DHT22;39546;45.534;12.048;2023-02-28T14:17:25;12.70;70.20
53643;DHT22;39546;45.534;12.048;2023-02-28T14:23:34;12.80;71.80
53643;DHT22;39546;45.534;12.048;2023-02-28T14:42:34;13.00;72.10
53643;DHT22;39546;45.534;12.048;2023-02-28T14:48:37;12.70;73.70
53643;DHT22;39546;45.534;12.048;2023-02-28T14:54:40;12.70;75.40
53643;DHT22;39546;45.534;12.048;2023-02-28T15:00:51;12.60;76.70
53643;DHT22;39546;45.534;12.048;2023-02-28T15:07:13;12.90;76.90
53643;DHT22;39546;45.534;12.048;2023-02-28T15:13:16;13.20;77.80
53643;DHT22;39546;45.534;12.048;2023-02-28T15:19:32;13.70;78.80
53643;DHT22;39546;45.534;12.048;2023-02-28T15:25:35;14.00;78.00
53643;DHT22;39546;45.534;12.048;2023-02-28T15:32:00;14.80;77.70
53643;DHT22;39546;45.534;12.048;2023-02-28T15:38:21;15.20;77.30
53643;DHT22;39546;45.534;12.048;2023-02-28T15:44:29;15.40;78.00
53643;DHT22;39546;45.534;12.048;2023-02-28T15:50:34;16.20;78.90
53643;DHT22;39546;45.534;12.048;2023-02-28T15:56:45;16.70;78.80
53643;DHT22;39546;45.534;12.048;2023-02-28T16:02:48;17.10;78.10
53643;DHT22;39546;45.534;12.048;2023-02-28T16:08:51;17.10;78.20
53643;DHT22;39546;45.534;12.048;2023-02-28T16:14:55;17.00;78.90
53643;DHT22;39546;45.534;12.048;2023-02-28T16:20:58;16.10;79.20
53643;DHT22;39546;45.534;12.048;2023-02-28T16:27:01;15.00;80.80
53643;DHT22;39546;45.534;12.048;2023-02-28T16:33:03;14.30;79.90
53643;DHT22;39546;45.534;12.048;2023-02-28T16:39:05;13.70;79.70
53643;DHT22;39546;45.534;12.048;2023-02-28T16:45:21;13.30;80.40
53643;DHT22;39546;45.534;12.048;2023-02-28T16:51:24;12.90;80.70
53643;DHT22;39546;45.534;12.048;2023-02-28T16:57:26;12.60;81.30
53643;DHT22;39546;45.534;12.048;2023-02-28T17:03:29;12.40;81.20
53643;DHT22;39546;45.534;12.048;2023-02-28T17:09:31;12.30;81.20
53643;DHT22;39546;45.534;12.048;2023-02-28T17:15:33;12.20;81.30
53643;DHT22;39546;45.534;12.048;2023-02-28T17:21:36;12.20;81.10
53643;DHT22;39546;45.534;12.048;2023-02-28T17:27:38;12.20;80.80
53643;DHT22;39546;45.534;12.048;2023-02-28T17:33:41;11.90;81.10
53643;DHT22;39546;45.534;12.048;2023-02-28T17:39:43;11.80;81.50
53643;DHT22;39546;45.534;12.048;2023-02-28T17:45:45;11.70;81.50
53643;DHT22;39546;45.534;12.048;2023-02-28T17:51:48;11.30;80.90
53643;DHT22;39546;45.534;12.048;2023-02-28T17:57:50;11.10;81.10
53643;DHT22;39546;45.534;12.048;2023-02-28T18:03:53;10.90;81.10
53643;DHT22;39546;45.534;12.048;2023-02-28T18:09:56;11.00;81.30
53643;DHT22;39546;45.534;12.048;2023-02-28T18:15:58;11.00;81.10
53643;DHT22;39546;45.534;12.048;2023-02-28T18:22:00;11.00;81.10
53643;DHT22;39546;45.534;12.048;2023-02-28T18:28:02;11.10;80.80
53643;DHT22;39546;45.534;12.048;2023-02-28T18:34:06;11.10;81.10
53643;DHT22;39546;45.534;12.048;2023-02-28T18:40:09;11.00;80.90
53643;DHT22;39546;45.534;12.048;2023-02-28T18:46:13;10.80;81.10
53643;DHT22;39546;45.534;12.048;2023-02-28T18:52:16;10.70;80.90
53643;DHT22;39546;45.534;12.048;2023-02-28T18:58:19;10.50;80.70
53643;DHT22;39546;45.534;12.048;2023-02-28T19:04:21;10.50;80.90
53643;DHT22;39546;45.534;12.048;2023-02-28T19:10:23;10.50;80.90
53643;DHT22;39546;45.534;12.048;2023-02-28T19:16:26;10.30;80.90
53643;DHT22;39546;45.534;12.048;2023-02-28T19:22:28;10.40;81.00
53643;DHT22;39546;45.534;12.048;2023-02-28T19:28:30;10.30;81.20
53643;DHT22;39546;45.534;12.048;2023-02-28T19:34:33;10.20;80.60
53643;DHT22;39546;45.534;12.048;2023-02-28T19:40:35;10.20;81.30
53643;DHT22;39546;45.534;12.048;2023-02-28T19:46:38;10.30;81.60
53643;DHT22;39546;45.534;12.048;2023-02-28T19:52:40;10.20;81.30
53643;DHT22;39546;45.534;12.048;2023-02-28T19:58:44;9.90;80.90
53643;DHT22;39546;45.534;12.048;2023-02-28T20:04:48;9.80;81.90
53643;DHT22;39546;45.534;12.048;2023-02-28T20:10:50;9.90;82.30
53643;DHT22;39546;45.534;12.048;2023-02-28T20:16:53;9.80;82.10
53643;DHT22;39546;45.534;12.048;2023-02-28T20:22:56;9.80;82.10
53643;DHT22;39546;45.534;12.048;2023-02-28T20:28:58;9.70;82.00
53643;DHT22;39546;45.534;12.048;2023-02-28T20:35:00;9.70;82.40
53643;DHT22;39546;45.534;12.048;2023-02-28T20:41:03;9.60;82.40
53643;DHT22;39546;45.534;12.048;2023-02-28T20:47:05;9.50;82.00
53643;DHT22;39546;45.534;12.048;2023-02-28T20:53:07;9.50;81.60
53643;DHT22;39546;45.534;12.048;2023-02-28T20:59:10;9.40;82.30
53643;DHT22;39546;45.534;12.048;2023-02-28T21:05:13;9.40;81.90
53643;DHT22;39546;45.534;12.048;2023-02-28T21:11:18;9.30;82.10
53643;DHT22;39546;45.534;12.048;2023-02-28T21:17:21;9.30;82.50
53643;DHT22;39546;45.534;12.048;2023-02-28T21:23:23;9.20;81.80
53643;DHT22;39546;45.534;12.048;2023-02-28T21:29:25;9.20;82.20
53643;DHT22;39546;45.534;12.048;2023-02-28T21:35:28;9.20;82.00
53643;DHT22;39546;45.534;12.048;2023-02-28T21:41:30;9.30;82.00
53643;DHT22;39546;45.534;12.048;2023-02-28T21:47:32;9.30;81.70
53643;DHT22;39546;45.534;12.048;2023-02-28T21:53:36;9.30;81.30
53643;DHT22;39546;45.534;12.048;2023-02-28T21:59:39;9.30;81.30
53643;DHT22;39546;45.534;12.048;2023-02-28T22:05:41;9.20;81.20
53643;DHT22;39546;45.534;12.048;2023-02-28T22:11:43;9.10;81.00
53643;DHT22;39546;45.534;12.048;2023-02-28T22:17:46;9.00;80.90
53643;DHT22;39546;45.534;12.048;2023-02-28T22:23:48;8.90;80.70
53643;DHT22;39546;45.534;12.048;2023-02-28T22:29:54;8.80;80.60
53643;DHT22;39546;45.534;12.048;2023-02-28T22:36:04;8.80;80.50
53643;DHT22;39546;45.534;12.048;2023-02-28T22:42:06;8.70;80.70
53643;DHT22;39546;45.534;12.048;2023-02-28T22:48:09;8.80;80.60
53643;DHT22;39546;45.534;12.048;2023-02-28T22:54:11;8.70;80.70
53643;DHT22;39546;45.534;12.048;2023-02-28T23:00:14;8.80;81.00
53643;DHT22;39546;45.534;12.048;2023-02-28T23:06:39;8.70;81.30
53643;DHT22;39546;45.534;12.048;2023-02-28T23:12:45;8.50;81.50
53643;DHT22;39546;45.534;12.048;2023-02-28T23:18:54;8.40;81.80
53643;DHT22;39546;45.534;12.048;2023-02-28T23:24:57;8.50;81.70
53643;DHT22;39546;45.534;12.048;2023-02-28T23:31:02;8.60;81.40
53643;DHT22;39546;45.534;12.048;2023-02-28T23:37:07;8.60;81.00
53643;DHT22;39546;45.534;12.048;2023-02-28T23:43:10;8.60;81.20
53643;DHT22;39546;45.534;12.048;2023-02-28T23:49:14;8.60;81.00
53643;DHT22;39546;45.534;12.048;2023-02-28T23:55:16;8.60;81.00
